sensor_id;sensor_type;location;lat;lon;timestamp;P1;durP1;ratioP1;P2;durP2;ratioP2
21266;SDS011;10791;53.108;18.326;2023-08-12T00:04:57;13.43;;;5.30;;
21266;SDS011;10791;53.108;18.326;2023-08-12T00:10:01;9.80;;;4.13;;
21266;SDS011;10791;53.108;18.326;2023-08-12T00:15:07;13.67;;;5.13;;
21266;SDS011;10791;53.108;18.326;2023-08-12T00:20:12;13.90;;;5.20;;
21266;SDS011;10791;53.108;18.326;2023-08-12T00:25:15;12.77;;;6.33;;
21266;SDS011;10791;53.108;18.326;2023-08-12T00:30:19;10.27;;;5.30;;
21266;SDS011;10791;53.108;18.326;2023-08-12T00:35:22;13.27;;;5.80;;
21266;SDS011;10791;53.108;18.326;2023-08-12T00:40:26;7.53;;;4.23;;
21266;SDS011;10791;53.108;18.326;2023-08-12T00:45:29;11.37;;;5.10;;
21266;SDS011;10791;53.108;18.326;2023-08-12T00:50:32;9.40;;;5.57;;
21266;SDS011;10791;53.108;18.326;2023-08-12T00:55:36;10.03;;;5.77;;
21266;SDS011;10791;53.108;18.326;2023-08-12T01:00:39;11.93;;;5.47;;
21266;SDS011;10791;53.108;18.326;2023-08-12T01:05:43;10.00;;;5.53;;
21266;SDS011;10791;53.108;18.326;2023-08-12T01:10:49;10.93;;;5.30;;
21266;SDS011;10791;53.108;18.326;2023-08-12T01:16:01;9.27;;;5.43;;
21266;SDS011;10791;53.108;18.326;2023-08-12T01:21:07;8.60;;;4.43;;
21266;SDS011;10791;53.108;18.326;2023-08-12T01:26:15;11.20;;;4.43;;
21266;SDS011;10791;53.108;18.326;2023-08-12T01:31:19;10.97;;;5.67;;
21266;SDS011;10791;53.108;18.326;2023-08-12T01:36:33;10.60;;;4.97;;
21266;SDS011;10791;53.108;18.326;2023-08-12T01:41:39;12.77;;;6.30;;
21266;SDS011;10791;53.108;18.326;2023-08-12T01:46:43;13.60;;;6.83;;
21266;SDS011;10791;53.108;18.326;2023-08-12T01:51:46;8.60;;;4.90;;
21266;SDS011;10791;53.108;18.326;2023-08-12T01:56:50;12.40;;;5.93;;
21266;SDS011;10791;53.108;18.326;2023-08-12T02:01:53;11.83;;;5.97;;
21266;SDS011;10791;53.108;18.326;2023-08-12T02:06:56;8.43;;;4.83;;
21266;SDS011;10791;53.108;18.326;2023-08-12T02:12:00;9.47;;;5.67;;
21266;SDS011;10791;53.108;18.326;2023-08-12T02:17:03;8.43;;;5.20;;
21266;SDS011;10791;53.108;18.326;2023-08-12T02:22:09;9.13;;;4.30;;
21266;SDS011;10791;53.108;18.326;2023-08-12T02:27:12;6.90;;;4.47;;
21266;SDS011;10791;53.108;18.326;2023-08-12T02:32:15;8.63;;;5.23;;
21266;SDS011;10791;53.108;18.326;2023-08-12T02:37:19;9.10;;;4.47;;
21266;SDS011;10791;53.108;18.326;2023-08-12T02:42:22;10.90;;;5.77;;
21266;SDS011;10791;53.108;18.326;2023-08-12T02:47:25;11.93;;;6.13;;
21266;SDS011;10791;53.108;18.326;2023-08-12T02:52:29;61.90;;;20.07;;
21266;SDS011;10791;53.108;18.326;2023-08-12T02:57:32;67.97;;;22.13;;
21266;SDS011;10791;53.108;18.326;2023-08-12T03:02:36;58.40;;;17.50;;
21266;SDS011;10791;53.108;18.326;2023-08-12T03:07:39;29.30;;;11.10;;
21266;SDS011;10791;53.108;18.326;2023-08-12T03:12:42;14.27;;;6.67;;
21266;SDS011;10791;53.108;18.326;2023-08-12T03:17:45;15.83;;;7.57;;
21266;SDS011;10791;53.108;18.326;2023-08-12T03:22:49;19.70;;;7.70;;
21266;SDS011;10791;53.108;18.326;2023-08-12T03:27:52;17.67;;;6.00;;
21266;SDS011;10791;53.108;18.326;2023-08-12T03:32:55;11.90;;;6.37;;
21266;SDS011;10791;53.108;18.326;2023-08-12T03:37:59;21.37;;;9.90;;
21266;SDS011;10791;53.108;18.326;2023-08-12T03:43:02;21.70;;;9.03;;
21266;SDS011;10791;53.108;18.326;2023-08-12T03:48:05;20.33;;;8.47;;
21266;SDS011;10791;53.108;18.326;2023-08-12T03:53:09;15.17;;;6.80;;
21266;SDS011;10791;53.108;18.326;2023-08-12T03:58:12;14.13;;;5.77;;
21266;SDS011;10791;53.108;18.326;2023-08-12T04:03:15;11.03;;;5.33;;
21266;SDS011;10791;53.108;18.326;2023-08-12T04:08:19;8.27;;;5.13;;
21266;SDS011;10791;53.108;18.326;2023-08-12T04:13:23;12.27;;;5.40;;
21266;SDS011;10791;53.108;18.326;2023-08-12T04:18:26;9.23;;;5.67;;
21266;SDS011;10791;53.108;18.326;2023-08-12T04:23:30;8.50;;;5.53;;
21266;SDS011;10791;53.108;18.326;2023-08-12T04:28:33;5.83;;;4.70;;
21266;SDS011;10791;53.108;18.326;2023-08-12T04:33:36;10.90;;;5.53;;
21266;SDS011;10791;53.108;18.326;2023-08-12T04:38:39;9.90;;;5.90;;
21266;SDS011;10791;53.108;18.326;2023-08-12T04:43:42;12.77;;;6.23;;
21266;SDS011;10791;53.108;18.326;2023-08-12T04:48:45;10.30;;;7.03;;
21266;SDS011;10791;53.108;18.326;2023-08-12T04:53:48;10.27;;;6.73;;
21266;SDS011;10791;53.108;18.326;2023-08-12T04:58:51;12.93;;;6.63;;
21266;SDS011;10791;53.108;18.326;2023-08-12T05:03:54;9.03;;;6.70;;
21266;SDS011;10791;53.108;18.326;2023-08-12T05:08:57;14.23;;;7.47;;
21266;SDS011;10791;53.108;18.326;2023-08-12T05:14:01;10.93;;;7.00;;
21266;SDS011;10791;53.108;18.326;2023-08-12T05:19:04;13.37;;;8.13;;
21266;SDS011;10791;53.108;18.326;2023-08-12T05:24:07;13.27;;;8.37;;
21266;SDS011;10791;53.108;18.326;2023-08-12T05:29:11;11.87;;;7.23;;
21266;SDS011;10791;53.108;18.326;2023-08-12T05:34:14;12.67;;;7.60;;
21266;SDS011;10791;53.108;18.326;2023-08-12T05:39:17;11.83;;;7.63;;
21266;SDS011;10791;53.108;18.326;2023-08-12T05:44:20;12.27;;;8.00;;
21266;SDS011;10791;53.108;18.326;2023-08-12T05:49:23;14.27;;;7.80;;
21266;SDS011;10791;53.108;18.326;2023-08-12T05:54:26;13.93;;;7.67;;
21266;SDS011;10791;53.108;18.326;2023-08-12T05:59:30;12.10;;;7.50;;
21266;SDS011;10791;53.108;18.326;2023-08-12T06:04:33;10.40;;;6.90;;
21266;SDS011;10791;53.108;18.326;2023-08-12T06:09:36;10.33;;;7.67;;
21266;SDS011;10791;53.108;18.326;2023-08-12T06:14:39;9.73;;;6.97;;
21266;SDS011;10791;53.108;18.326;2023-08-12T06:19:43;13.20;;;7.28;;
21266;SDS011;10791;53.108;18.326;2023-08-12T06:24:46;10.27;;;7.57;;
21266;SDS011;10791;53.108;18.326;2023-08-12T06:29:49;10.50;;;6.68;;
21266;SDS011;10791;53.108;18.326;2023-08-12T06:34:53;6.90;;;5.13;;
21266;SDS011;10791;53.108;18.326;2023-08-12T06:39:56;8.35;;;4.63;;
21266;SDS011;10791;53.108;18.326;2023-08-12T06:44:59;6.88;;;4.57;;
21266;SDS011;10791;53.108;18.326;2023-08-12T06:50:03;6.00;;;3.88;;
21266;SDS011;10791;53.108;18.326;2023-08-12T06:55:06;6.88;;;3.08;;
21266;SDS011;10791;53.108;18.326;2023-08-12T07:00:10;10.25;;;3.53;;
21266;SDS011;10791;53.108;18.326;2023-08-12T07:05:14;7.05;;;3.47;;
21266;SDS011;10791;53.108;18.326;2023-08-12T07:10:17;7.03;;;3.80;;
21266;SDS011;10791;53.108;18.326;2023-08-12T07:15:23;8.07;;;2.75;;
21266;SDS011;10791;53.108;18.326;2023-08-12T07:20:27;5.82;;;3.28;;
21266;SDS011;10791;53.108;18.326;2023-08-12T07:25:30;5.93;;;3.80;;
21266;SDS011;10791;53.108;18.326;2023-08-12T07:30:34;6.65;;;3.20;;
21266;SDS011;10791;53.108;18.326;2023-08-12T07:35:38;5.07;;;2.88;;
21266;SDS011;10791;53.108;18.326;2023-08-12T07:40:42;8.73;;;2.85;;
21266;SDS011;10791;53.108;18.326;2023-08-12T07:45:50;5.60;;;1.77;;
21266;SDS011;10791;53.108;18.326;2023-08-12T07:51:10;3.75;;;1.90;;
21266;SDS011;10791;53.108;18.326;2023-08-12T07:56:13;4.50;;;2.28;;
21266;SDS011;10791;53.108;18.326;2023-08-12T08:01:17;4.35;;;1.70;;
21266;SDS011;10791;53.108;18.326;2023-08-12T08:06:21;7.05;;;2.20;;
21266;SDS011;10791;53.108;18.326;2023-08-12T08:11:26;3.33;;;2.10;;
21266;SDS011;10791;53.108;18.326;2023-08-12T08:16:30;4.00;;;1.75;;
21266;SDS011;10791;53.108;18.326;2023-08-12T08:21:33;8.02;;;1.70;;
21266;SDS011;10791;53.108;18.326;2023-08-12T08:26:37;2.03;;;1.30;;
21266;SDS011;10791;53.108;18.326;2023-08-12T08:31:40;4.47;;;1.75;;
21266;SDS011;10791;53.108;18.326;2023-08-12T08:36:43;5.10;;;1.90;;
21266;SDS011;10791;53.108;18.326;2023-08-12T08:41:46;2.90;;;1.60;;
21266;SDS011;10791;53.108;18.326;2023-08-12T08:46:51;3.30;;;1.85;;
21266;SDS011;10791;53.108;18.326;2023-08-12T08:51:58;4.85;;;2.00;;
21266;SDS011;10791;53.108;18.326;2023-08-12T08:57:02;5.55;;;1.83;;
21266;SDS011;10791;53.108;18.326;2023-08-12T09:02:17;4.25;;;1.60;;
21266;SDS011;10791;53.108;18.326;2023-08-12T09:07:21;2.80;;;1.70;;
21266;SDS011;10791;53.108;18.326;2023-08-12T09:12:25;5.18;;;2.00;;
21266;SDS011;10791;53.108;18.326;2023-08-12T09:17:28;3.95;;;1.52;;
21266;SDS011;10791;53.108;18.326;2023-08-12T09:22:31;3.88;;;1.45;;
21266;SDS011;10791;53.108;18.326;2023-08-12T09:27:35;5.60;;;1.90;;
21266;SDS011;10791;53.108;18.326;2023-08-12T09:32:40;3.97;;;1.55;;
21266;SDS011;10791;53.108;18.326;2023-08-12T09:37:44;7.20;;;1.90;;
21266;SDS011;10791;53.108;18.326;2023-08-12T09:42:47;5.10;;;1.83;;
21266;SDS011;10791;53.108;18.326;2023-08-12T09:47:51;4.03;;;2.03;;
21266;SDS011;10791;53.108;18.326;2023-08-12T09:52:57;5.15;;;1.52;;
21266;SDS011;10791;53.108;18.326;2023-08-12T09:58:00;3.78;;;1.98;;
21266;SDS011;10791;53.108;18.326;2023-08-12T10:03:08;2.45;;;1.27;;
21266;SDS011;10791;53.108;18.326;2023-08-12T10:08:16;3.03;;;1.50;;
21266;SDS011;10791;53.108;18.326;2023-08-12T10:13:21;2.42;;;1.33;;
21266;SDS011;10791;53.108;18.326;2023-08-12T10:18:25;4.05;;;1.85;;
21266;SDS011;10791;53.108;18.326;2023-08-12T10:23:30;4.63;;;2.13;;
21266;SDS011;10791;53.108;18.326;2023-08-12T10:28:34;3.28;;;1.60;;
21266;SDS011;10791;53.108;18.326;2023-08-12T10:33:39;5.47;;;1.67;;
21266;SDS011;10791;53.108;18.326;2023-08-12T10:38:43;3.55;;;1.55;;
21266;SDS011;10791;53.108;18.326;2023-08-12T10:49:06;9.27;;;1.55;;
21266;SDS011;10791;53.108;18.326;2023-08-12T10:54:14;3.45;;;1.48;;
21266;SDS011;10791;53.108;18.326;2023-08-12T11:04:57;3.03;;;1.30;;
21266;SDS011;10791;53.108;18.326;2023-08-12T11:10:14;4.95;;;1.38;;
21266;SDS011;10791;53.108;18.326;2023-08-12T11:20:36;3.17;;;1.63;;
21266;SDS011;10791;53.108;18.326;2023-08-12T11:25:40;3.45;;;1.40;;
21266;SDS011;10791;53.108;18.326;2023-08-12T11:30:47;2.45;;;1.33;;
21266;SDS011;10791;53.108;18.326;2023-08-12T11:35:50;3.03;;;1.40;;
21266;SDS011;10791;53.108;18.326;2023-08-12T11:40:53;2.78;;;1.38;;
21266;SDS011;10791;53.108;18.326;2023-08-12T11:45:56;2.78;;;1.27;;
21266;SDS011;10791;53.108;18.326;2023-08-12T11:50:59;3.22;;;1.10;;
21266;SDS011;10791;53.108;18.326;2023-08-12T11:56:03;3.70;;;1.55;;
21266;SDS011;10791;53.108;18.326;2023-08-12T12:01:06;5.07;;;1.48;;
21266;SDS011;10791;53.108;18.326;2023-08-12T12:06:09;3.55;;;1.77;;
21266;SDS011;10791;53.108;18.326;2023-08-12T12:11:13;2.13;;;1.20;;
21266;SDS011;10791;53.108;18.326;2023-08-12T12:16:16;2.53;;;1.10;;
21266;SDS011;10791;53.108;18.326;2023-08-12T12:21:20;4.68;;;1.23;;
21266;SDS011;10791;53.108;18.326;2023-08-12T12:26:25;3.38;;;1.40;;
21266;SDS011;10791;53.108;18.326;2023-08-12T12:31:39;6.97;;;1.25;;
21266;SDS011;10791;53.108;18.326;2023-08-12T12:36:43;2.33;;;1.48;;
21266;SDS011;10791;53.108;18.326;2023-08-12T12:41:46;5.13;;;1.50;;
21266;SDS011;10791;53.108;18.326;2023-08-12T12:46:49;3.63;;;1.08;;
21266;SDS011;10791;53.108;18.326;2023-08-12T12:51:53;4.95;;;1.60;;
21266;SDS011;10791;53.108;18.326;2023-08-12T12:56:56;2.70;;;1.60;;
21266;SDS011;10791;53.108;18.326;2023-08-12T13:01:59;2.65;;;1.50;;
21266;SDS011;10791;53.108;18.326;2023-08-12T13:07:02;4.88;;;1.50;;
21266;SDS011;10791;53.108;18.326;2023-08-12T13:12:05;9.10;;;1.67;;
21266;SDS011;10791;53.108;18.326;2023-08-12T13:17:08;7.22;;;2.10;;
21266;SDS011;10791;53.108;18.326;2023-08-12T13:22:11;3.88;;;1.67;;
21266;SDS011;10791;53.108;18.326;2023-08-12T13:27:15;6.03;;;1.77;;
21266;SDS011;10791;53.108;18.326;2023-08-12T13:32:19;3.95;;;1.52;;
21266;SDS011;10791;53.108;18.326;2023-08-12T13:37:22;2.70;;;1.60;;
21266;SDS011;10791;53.108;18.326;2023-08-12T13:42:25;2.95;;;1.90;;
21266;SDS011;10791;53.108;18.326;2023-08-12T13:47:29;2.33;;;1.55;;
21266;SDS011;10791;53.108;18.326;2023-08-12T13:52:32;2.65;;;1.58;;
21266;SDS011;10791;53.108;18.326;2023-08-12T13:57:35;2.08;;;1.40;;
21266;SDS011;10791;53.108;18.326;2023-08-12T14:02:39;5.43;;;2.00;;
21266;SDS011;10791;53.108;18.326;2023-08-12T14:07:42;2.13;;;1.30;;
21266;SDS011;10791;53.108;18.326;2023-08-12T14:12:46;4.15;;;1.42;;
21266;SDS011;10791;53.108;18.326;2023-08-12T14:17:53;3.45;;;1.33;;
21266;SDS011;10791;53.108;18.326;2023-08-12T14:22:57;3.13;;;1.48;;
21266;SDS011;10791;53.108;18.326;2023-08-12T14:28:00;3.20;;;1.30;;
21266;SDS011;10791;53.108;18.326;2023-08-12T14:33:03;2.58;;;1.20;;
21266;SDS011;10791;53.108;18.326;2023-08-12T14:38:08;5.93;;;2.33;;
21266;SDS011;10791;53.108;18.326;2023-08-12T14:43:11;2.42;;;1.48;;
21266;SDS011;10791;53.108;18.326;2023-08-12T14:48:14;24.92;;;5.88;;
21266;SDS011;10791;53.108;18.326;2023-08-12T14:53:19;4.40;;;1.70;;
21266;SDS011;10791;53.108;18.326;2023-08-12T14:58:22;7.45;;;2.00;;
21266;SDS011;10791;53.108;18.326;2023-08-12T15:03:25;5.65;;;2.30;;
21266;SDS011;10791;53.108;18.326;2023-08-12T15:08:28;6.38;;;2.90;;
21266;SDS011;10791;53.108;18.326;2023-08-12T15:13:31;3.22;;;1.90;;
21266;SDS011;10791;53.108;18.326;2023-08-12T15:18:34;2.03;;;1.50;;
21266;SDS011;10791;53.108;18.326;2023-08-12T15:23:38;2.58;;;1.48;;
21266;SDS011;10791;53.108;18.326;2023-08-12T15:28:41;3.42;;;1.70;;
21266;SDS011;10791;53.108;18.326;2023-08-12T15:33:44;4.72;;;1.80;;
21266;SDS011;10791;53.108;18.326;2023-08-12T15:38:47;6.07;;;1.55;;
21266;SDS011;10791;53.108;18.326;2023-08-12T15:43:51;4.55;;;1.50;;
21266;SDS011;10791;53.108;18.326;2023-08-12T15:48:54;7.15;;;1.83;;
21266;SDS011;10791;53.108;18.326;2023-08-12T15:53:58;4.78;;;1.65;;
21266;SDS011;10791;53.108;18.326;2023-08-12T15:59:01;2.97;;;1.67;;
21266;SDS011;10791;53.108;18.326;2023-08-12T16:04:05;4.50;;;2.10;;
21266;SDS011;10791;53.108;18.326;2023-08-12T16:09:10;4.85;;;2.28;;
21266;SDS011;10791;53.108;18.326;2023-08-12T16:14:20;4.50;;;2.85;;
21266;SDS011;10791;53.108;18.326;2023-08-12T16:19:23;3.40;;;2.00;;
21266;SDS011;10791;53.108;18.326;2023-08-12T16:24:26;4.70;;;1.75;;
21266;SDS011;10791;53.108;18.326;2023-08-12T16:29:29;4.35;;;1.50;;
21266;SDS011;10791;53.108;18.326;2023-08-12T16:34:32;6.00;;;2.50;;
21266;SDS011;10791;53.108;18.326;2023-08-12T16:39:35;4.72;;;2.22;;
21266;SDS011;10791;53.108;18.326;2023-08-12T16:44:39;4.10;;;1.55;;
21266;SDS011;10791;53.108;18.326;2023-08-12T16:49:42;5.47;;;2.45;;
21266;SDS011;10791;53.108;18.326;2023-08-12T16:54:45;6.53;;;3.17;;
21266;SDS011;10791;53.108;18.326;2023-08-12T16:59:48;4.30;;;2.42;;
21266;SDS011;10791;53.108;18.326;2023-08-12T17:04:52;7.90;;;2.35;;
21266;SDS011;10791;53.108;18.326;2023-08-12T17:09:55;6.85;;;2.05;;
21266;SDS011;10791;53.108;18.326;2023-08-12T17:14:59;7.72;;;2.47;;
21266;SDS011;10791;53.108;18.326;2023-08-12T17:20:03;10.18;;;2.60;;
21266;SDS011;10791;53.108;18.326;2023-08-12T17:25:07;4.00;;;2.53;;
21266;SDS011;10791;53.108;18.326;2023-08-12T17:30:11;5.30;;;2.45;;
21266;SDS011;10791;53.108;18.326;2023-08-12T17:35:14;16.20;;;3.40;;
21266;SDS011;10791;53.108;18.326;2023-08-12T17:40:18;7.63;;;2.70;;
21266;SDS011;10791;53.108;18.326;2023-08-12T17:45:25;8.15;;;3.15;;
21266;SDS011;10791;53.108;18.326;2023-08-12T17:50:31;6.72;;;2.25;;
21266;SDS011;10791;53.108;18.326;2023-08-12T17:55:34;14.15;;;2.53;;
21266;SDS011;10791;53.108;18.326;2023-08-12T18:00:39;7.53;;;3.33;;
21266;SDS011;10791;53.108;18.326;2023-08-12T18:05:43;9.40;;;3.22;;
21266;SDS011;10791;53.108;18.326;2023-08-12T18:10:47;7.78;;;2.88;;
21266;SDS011;10791;53.108;18.326;2023-08-12T18:15:50;7.20;;;2.83;;
21266;SDS011;10791;53.108;18.326;2023-08-12T18:20:53;10.13;;;3.10;;
21266;SDS011;10791;53.108;18.326;2023-08-12T18:25:57;7.50;;;4.18;;
21266;SDS011;10791;53.108;18.326;2023-08-12T18:31:00;10.35;;;4.75;;
21266;SDS011;10791;53.108;18.326;2023-08-12T18:36:04;8.70;;;3.25;;
21266;SDS011;10791;53.108;18.326;2023-08-12T18:41:07;10.27;;;3.40;;
21266;SDS011;10791;53.108;18.326;2023-08-12T18:46:11;13.35;;;3.95;;
21266;SDS011;10791;53.108;18.326;2023-08-12T18:51:14;7.90;;;3.67;;
21266;SDS011;10791;53.108;18.326;2023-08-12T18:56:18;9.75;;;3.67;;
21266;SDS011;10791;53.108;18.326;2023-08-12T19:01:22;9.25;;;3.45;;
21266;SDS011;10791;53.108;18.326;2023-08-12T19:06:26;10.93;;;3.70;;
21266;SDS011;10791;53.108;18.326;2023-08-12T19:11:29;9.10;;;3.05;;
21266;SDS011;10791;53.108;18.326;2023-08-12T19:16:32;7.68;;;4.20;;
21266;SDS011;10791;53.108;18.326;2023-08-12T19:21:36;11.82;;;3.55;;
21266;SDS011;10791;53.108;18.326;2023-08-12T19:26:40;8.55;;;3.40;;
21266;SDS011;10791;53.108;18.326;2023-08-12T19:31:43;6.45;;;4.10;;
21266;SDS011;10791;53.108;18.326;2023-08-12T19:36:47;6.40;;;3.67;;
21266;SDS011;10791;53.108;18.326;2023-08-12T19:41:50;6.40;;;4.10;;
21266;SDS011;10791;53.108;18.326;2023-08-12T19:46:54;6.88;;;4.00;;
21266;SDS011;10791;53.108;18.326;2023-08-12T19:51:58;7.63;;;3.67;;
21266;SDS011;10791;53.108;18.326;2023-08-12T19:57:01;8.57;;;3.67;;
21266;SDS011;10791;53.108;18.326;2023-08-12T20:02:06;10.23;;;3.83;;
21266;SDS011;10791;53.108;18.326;2023-08-12T20:07:09;6.47;;;3.63;;
21266;SDS011;10791;53.108;18.326;2023-08-12T20:12:13;6.85;;;3.88;;
21266;SDS011;10791;53.108;18.326;2023-08-12T20:17:17;6.32;;;3.20;;
21266;SDS011;10791;53.108;18.326;2023-08-12T20:22:24;5.65;;;4.00;;
21266;SDS011;10791;53.108;18.326;2023-08-12T20:27:28;7.65;;;4.15;;
21266;SDS011;10791;53.108;18.326;2023-08-12T20:32:32;9.07;;;3.70;;
21266;SDS011;10791;53.108;18.326;2023-08-12T20:37:37;5.95;;;4.03;;
21266;SDS011;10791;53.108;18.326;2023-08-12T20:42:41;6.93;;;3.95;;
21266;SDS011;10791;53.108;18.326;2023-08-12T20:47:45;5.72;;;4.13;;
21266;SDS011;10791;53.108;18.326;2023-08-12T20:52:49;6.55;;;4.22;;
21266;SDS011;10791;53.108;18.326;2023-08-12T20:57:54;8.57;;;3.60;;
21266;SDS011;10791;53.108;18.326;2023-08-12T21:02:58;8.57;;;3.67;;
21266;SDS011;10791;53.108;18.326;2023-08-12T21:08:03;6.57;;;4.05;;
21266;SDS011;10791;53.108;18.326;2023-08-12T21:13:07;8.45;;;3.78;;
21266;SDS011;10791;53.108;18.326;2023-08-12T21:18:10;10.00;;;3.63;;
21266;SDS011;10791;53.108;18.326;2023-08-12T21:23:14;9.52;;;4.18;;
21266;SDS011;10791;53.108;18.326;2023-08-12T21:28:17;10.63;;;4.80;;
21266;SDS011;10791;53.108;18.326;2023-08-12T21:33:21;6.63;;;3.30;;
21266;SDS011;10791;53.108;18.326;2023-08-12T21:38:24;7.97;;;3.33;;
21266;SDS011;10791;53.108;18.326;2023-08-12T21:43:32;5.97;;;3.65;;
21266;SDS011;10791;53.108;18.326;2023-08-12T21:48:35;6.43;;;3.35;;
21266;SDS011;10791;53.108;18.326;2023-08-12T21:53:39;8.18;;;3.65;;
21266;SDS011;10791;53.108;18.326;2023-08-12T21:58:45;4.68;;;3.03;;
21266;SDS011;10791;53.108;18.326;2023-08-12T22:03:49;9.27;;;4.13;;
21266;SDS011;10791;53.108;18.326;2023-08-12T22:08:52;5.55;;;3.35;;
21266;SDS011;10791;53.108;18.326;2023-08-12T22:13:56;6.68;;;2.85;;
21266;SDS011;10791;53.108;18.326;2023-08-12T22:18:59;4.50;;;3.13;;
21266;SDS011;10791;53.108;18.326;2023-08-12T22:24:02;6.70;;;2.97;;
21266;SDS011;10791;53.108;18.326;2023-08-12T22:29:06;4.40;;;2.95;;
21266;SDS011;10791;53.108;18.326;2023-08-12T22:34:09;5.32;;;2.60;;
21266;SDS011;10791;53.108;18.326;2023-08-12T22:39:13;5.57;;;2.90;;
21266;SDS011;10791;53.108;18.326;2023-08-12T22:44:16;7.82;;;4.07;;
21266;SDS011;10791;53.108;18.326;2023-08-12T22:49:19;11.05;;;3.97;;
21266;SDS011;10791;53.108;18.326;2023-08-12T22:54:22;5.85;;;3.40;;
21266;SDS011;10791;53.108;18.326;2023-08-12T22:59:25;7.90;;;3.50;;
21266;SDS011;10791;53.108;18.326;2023-08-12T23:04:29;6.93;;;4.10;;
21266;SDS011;10791;53.108;18.326;2023-08-12T23:09:32;7.55;;;3.92;;
21266;SDS011;10791;53.108;18.326;2023-08-12T23:14:35;7.13;;;3.30;;
21266;SDS011;10791;53.108;18.326;2023-08-12T23:19:38;7.43;;;3.40;;
21266;SDS011;10791;53.108;18.326;2023-08-12T23:24:42;7.80;;;3.60;;
21266;SDS011;10791;53.108;18.326;2023-08-12T23:29:45;11.73;;;3.10;;
21266;SDS011;10791;53.108;18.326;2023-08-12T23:34:48;6.50;;;3.38;;
21266;SDS011;10791;53.108;18.326;2023-08-12T23:39:51;5.38;;;3.58;;
21266;SDS011;10791;53.108;18.326;2023-08-12T23:44:55;6.85;;;2.97;;
21266;SDS011;10791;53.108;18.326;2023-08-12T23:49:58;6.57;;;3.35;;
21266;SDS011;10791;53.108;18.326;2023-08-12T23:55:01;6.82;;;3.78;;
